Time;durP1;ratioP1;P1;durP2;ratioP2;P2;SDS_P1;SDS_P2;PMS_P1;PMS_P2;Temp;Humidity;BMP_temperature;BMP_pressure;BME280_temperature;BME280_humidity;BME280_pressure;Samples;Min_cycle;Max_cycle;Signal;HPM_P1;HPM_P2
2021/08/19 00:01:27;;;;;;;0.80;0.80;;;;;;;;;;5076386;28;20191;-44
2021/08/19 00:03:53;;;;;;;1.10;1.00;;;;;;;;;;5082778;28;20194;-44
2021/08/19 00:06:19;;;;;;;0.80;0.80;;;;;;;;;;5092946;28;20184;-44
2021/08/19 00:08:45;;;;;;;0.77;0.77;;;;;;;;;;5085411;28;20608;-44
2021/08/19 00:11:11;;;;;;;1.00;0.90;;;;;;;;;;5094869;28;20174;-44
2021/08/19 00:13:38;;;;;;;1.20;1.00;;;;;;;;;;5085766;28;20170;-44
2021/08/19 00:16:05;;;;;;;1.00;0.88;;;;;;;;;;5096521;28;20166;-44
2021/08/19 00:18:31;;;;;;;0.90;0.90;;;;;;;;;;5095712;28;20189;-44
2021/08/19 00:20:57;;;;;;;0.80;0.80;;;;;;;;;;5096312;28;20174;-44
2021/08/19 00:23:23;;;;;;;1.05;1.00;;;;;;;;;;5087272;28;20466;-44
2021/08/19 00:25:49;;;;;;;1.65;1.00;;;;;;;;;;5094755;28;20212;-44
2021/08/19 00:28:15;;;;;;;0.82;0.82;;;;;;;;;;5083584;28;20202;-44
2021/08/19 00:30:41;;;;;;;1.20;1.10;;;;;;;;;;5092319;28;20188;-44
2021/08/19 00:33:07;;;;;;;0.90;0.90;;;;;;;;;;5094183;28;20188;-44
2021/08/19 00:35:33;;;;;;;0.95;0.90;;;;;;;;;;5096191;28;20244;-44
2021/08/19 00:38:01;;;;;;;1.00;0.90;;;;;;;;;;5084987;28;20449;-44
2021/08/19 00:40:26;;;;;;;0.90;0.88;;;;;;;;;;5075839;28;20178;-44
2021/08/19 00:42:52;;;;;;;0.70;0.70;;;;;;;;;;5087459;28;20216;-44
2021/08/19 00:45:21;;;;;;;1.25;1.08;;;;;;;;;;5081177;28;20190;-44
2021/08/19 00:47:47;;;;;;;0.80;0.80;;;;;;;;;;5083869;28;20244;-45
2021/08/19 00:50:13;;;;;;;3.35;1.08;;;;;;;;;;5076558;28;20217;-45
2021/08/19 00:52:41;;;;;;;0.98;0.95;;;;;;;;;;5078896;28;20182;-44
2021/08/19 00:55:07;;;;;;;1.08;0.80;;;;;;;;;;5081464;28;20670;-44
2021/08/19 00:57:34;;;;;;;0.85;0.85;;;;;;;;;;5088149;28;20182;-44
2021/08/19 01:00:00;;;;;;;0.82;0.82;;;;;;;;;;5082230;28;20213;-44
2021/08/19 01:02:26;;;;;;;0.90;0.90;;;;;;;;;;5075275;28;20214;-44
2021/08/19 01:04:52;;;;;;;0.80;0.80;;;;;;;;;;5087688;28;20185;-44
2021/08/19 01:07:18;;;;;;;1.75;0.98;;;;;;;;;;5076491;28;20441;-44
2021/08/19 01:09:44;;;;;;;0.70;0.70;;;;;;;;;;5093428;28;20205;-44
2021/08/19 01:12:11;;;;;;;1.00;0.75;;;;;;;;;;5086127;28;20165;-44
2021/08/19 01:14:37;;;;;;;0.80;0.80;;;;;;;;;;5090842;28;20178;-44
2021/08/19 01:17:07;;;;;;;0.80;0.80;;;;;;;;;;5074687;28;20190;-45
2021/08/19 01:19:33;;;;;;;0.80;0.80;;;;;;;;;;5092647;28;20204;-45
2021/08/19 01:21:59;;;;;;;1.38;1.27;;;;;;;;;;5095110;28;20265;-44
2021/08/19 01:24:25;;;;;;;0.95;0.95;;;;;;;;;;5093299;28;20243;-44
2021/08/19 01:26:53;;;;;;;0.90;0.90;;;;;;;;;;5077011;28;20174;-44
2021/08/19 01:29:19;;;;;;;0.80;0.80;;;;;;;;;;5090760;28;20205;-44
2021/08/19 01:31:57;;;;;;;0.80;0.80;;;;;;;;;;5094312;28;20454;-44
2021/08/19 01:34:23;;;;;;;0.90;0.90;;;;;;;;;;5095008;28;20188;-44
2021/08/19 01:36:49;;;;;;;0.80;0.80;;;;;;;;;;5084116;28;20174;-44
2021/08/19 01:39:15;;;;;;;0.80;0.80;;;;;;;;;;5094191;28;20198;-44
2021/08/19 01:41:41;;;;;;;0.80;0.80;;;;;;;;;;5090055;28;20175;-44
2021/08/19 01:44:07;;;;;;;0.98;0.90;;;;;;;;;;5090947;28;20433;-44
2021/08/19 01:46:33;;;;;;;0.90;0.90;;;;;;;;;;5074877;28;20190;-44
2021/08/19 01:49:02;;;;;;;0.90;0.90;;;;;;;;;;5073699;28;20477;-45
2021/08/19 01:51:28;;;;;;;0.80;0.80;;;;;;;;;;5074496;28;20535;-44
2021/08/19 01:53:54;;;;;;;1.00;0.93;;;;;;;;;;5076355;28;20193;-44
2021/08/19 01:56:20;;;;;;;0.80;0.80;;;;;;;;;;5090980;28;20206;-44
2021/08/19 01:58:46;;;;;;;1.10;1.00;;;;;;;;;;5076518;28;20206;-44
2021/08/19 02:01:18;;;;;;;0.90;0.90;;;;;;;;;;5087498;28;20201;-44
2021/08/19 02:03:44;;;;;;;0.70;0.70;;;;;;;;;;5094268;28;20487;-45
2021/08/19 02:06:10;;;;;;;0.80;0.80;;;;;;;;;;5094474;28;20186;-45
2021/08/19 02:08:36;;;;;;;0.70;0.70;;;;;;;;;;5093210;28;20248;-44
2021/08/19 02:11:02;;;;;;;0.80;0.80;;;;;;;;;;5074534;28;20190;-44
2021/08/19 02:13:28;;;;;;;0.73;0.68;;;;;;;;;;5075516;28;20191;-44
2021/08/19 02:15:54;;;;;;;0.95;0.80;;;;;;;;;;5088005;28;20189;-44
2021/08/19 02:18:20;;;;;;;0.73;0.73;;;;;;;;;;5073639;28;20603;-44
2021/08/19 02:20:45;;;;;;;0.70;0.70;;;;;;;;;;5074260;28;20174;-44
2021/08/19 02:23:11;;;;;;;0.98;0.98;;;;;;;;;;5074434;28;20776;-44
2021/08/19 02:25:37;;;;;;;0.70;0.70;;;;;;;;;;5074020;28;20278;-44
2021/08/19 02:28:04;;;;;;;0.80;0.80;;;;;;;;;;5082804;28;20560;-44
2021/08/19 02:30:29;;;;;;;1.00;1.00;;;;;;;;;;5091838;28;20178;-44
2021/08/19 02:32:56;;;;;;;0.70;0.70;;;;;;;;;;5075864;28;20186;-44
2021/08/19 02:35:23;;;;;;;0.70;0.70;;;;;;;;;;5088872;28;20509;-44
2021/08/19 02:37:49;;;;;;;0.60;0.60;;;;;;;;;;5093775;28;20170;-44
2021/08/19 02:40:15;;;;;;;0.82;0.82;;;;;;;;;;5093418;28;20200;-44
2021/08/19 02:42:41;;;;;;;0.80;0.80;;;;;;;;;;5085835;28;20182;-44
2021/08/19 02:45:07;;;;;;;0.70;0.70;;;;;;;;;;5094382;28;20512;-44
2021/08/19 02:47:33;;;;;;;0.93;0.80;;;;;;;;;;5083582;28;20261;-44
2021/08/19 02:49:59;;;;;;;0.70;0.70;;;;;;;;;;5088080;28;20252;-44
2021/08/19 02:52:25;;;;;;;0.70;0.70;;;;;;;;;;5093405;28;20180;-44
2021/08/19 02:54:51;;;;;;;0.77;0.77;;;;;;;;;;5081931;28;20208;-44
2021/08/19 02:57:17;;;;;;;0.90;0.90;;;;;;;;;;5076698;28;20178;-44
2021/08/19 02:59:43;;;;;;;0.70;0.70;;;;;;;;;;5083041;28;20178;-44
2021/08/19 03:02:09;;;;;;;1.63;0.85;;;;;;;;;;5076764;28;20248;-44
2021/08/19 03:04:35;;;;;;;0.95;0.70;;;;;;;;;;5077630;28;20546;-44
2021/08/19 03:07:01;;;;;;;0.70;0.70;;;;;;;;;;5077326;28;20175;-44
2021/08/19 03:09:27;;;;;;;1.27;0.90;;;;;;;;;;5079878;28;20259;-44
2021/08/19 03:11:53;;;;;;;0.77;0.77;;;;;;;;;;5094286;28;20197;-44
2021/08/19 03:14:20;;;;;;;0.82;0.82;;;;;;;;;;5088708;28;20549;-44
2021/08/19 03:16:45;;;;;;;1.55;0.65;;;;;;;;;;5077316;28;20170;-44
2021/08/19 03:19:11;;;;;;;0.70;0.70;;;;;;;;;;5076828;28;20174;-44
2021/08/19 03:21:37;;;;;;;0.70;0.70;;;;;;;;;;5077280;28;20182;-45
2021/08/19 03:24:04;;;;;;;0.60;0.60;;;;;;;;;;5076994;28;20181;-44
2021/08/19 03:26:32;;;;;;;0.75;0.75;;;;;;;;;;5077821;28;20167;-44
2021/08/19 03:28:58;;;;;;;0.73;0.73;;;;;;;;;;5089525;28;20194;-45
2021/08/19 03:31:25;;;;;;;0.77;0.77;;;;;;;;;;5082628;28;20455;-45
2021/08/19 03:33:51;;;;;;;0.70;0.70;;;;;;;;;;5082294;28;20170;-44
2021/08/19 03:36:17;;;;;;;0.60;0.60;;;;;;;;;;5069287;28;20205;-44
2021/08/19 03:38:44;;;;;;;0.70;0.70;;;;;;;;;;5075806;28;20553;-44
2021/08/19 03:41:10;;;;;;;0.75;0.75;;;;;;;;;;5079700;28;20174;-45
2021/08/19 03:43:37;;;;;;;2.20;1.42;;;;;;;;;;5090941;28;20260;-44
2021/08/19 03:46:03;;;;;;;1.13;0.77;;;;;;;;;;5076882;28;20545;-44
2021/08/19 03:48:29;;;;;;;0.75;0.75;;;;;;;;;;5084820;28;20229;-44
2021/08/19 03:50:55;;;;;;;0.75;0.75;;;;;;;;;;5096318;28;20279;-44
2021/08/19 03:53:21;;;;;;;0.80;0.80;;;;;;;;;;5083990;28;20181;-44
2021/08/19 03:55:47;;;;;;;0.80;0.60;;;;;;;;;;5093446;28;20197;-44
2021/08/19 03:58:13;;;;;;;0.95;0.77;;;;;;;;;;5067250;28;20215;-45
2021/08/19 04:00:39;;;;;;;0.80;0.75;;;;;;;;;;5090764;28;20213;-44
2021/08/19 04:03:05;;;;;;;0.60;0.60;;;;;;;;;;5091796;28;20577;-45
2021/08/19 04:05:31;;;;;;;7.63;1.40;;;;;;;;;;5089460;28;20186;-44
2021/08/19 04:07:57;;;;;;;5.65;2.15;;;;;;;;;;5076405;28;20214;-45
2021/08/19 04:10:23;;;;;;;6.47;2.45;;;;;;;;;;5092353;28;20174;-44
2021/08/19 04:12:49;;;;;;;5.20;1.70;;;;;;;;;;5087803;28;20167;-44
2021/08/19 04:15:15;;;;;;;5.68;2.03;;;;;;;;;;5091475;28;20456;-45
2021/08/19 04:17:41;;;;;;;7.05;1.90;;;;;;;;;;5094357;28;20190;-44
2021/08/19 04:20:07;;;;;;;6.25;2.42;;;;;;;;;;5076484;28;20218;-44
2021/08/19 04:22:33;;;;;;;7.45;2.28;;;;;;;;;;5076635;28;20194;-45
2021/08/19 04:24:59;;;;;;;9.52;2.78;;;;;;;;;;5084958;28;20216;-44
2021/08/19 04:27:25;;;;;;;7.22;2.85;;;;;;;;;;5091013;28;20197;-45
2021/08/19 04:29:51;;;;;;;10.23;3.17;;;;;;;;;;5087909;28;20209;-45
2021/08/19 04:32:17;;;;;;;15.35;4.25;;;;;;;;;;5096160;28;20257;-45
2021/08/19 04:34:43;;;;;;;15.32;3.85;;;;;;;;;;5077464;28;20253;-44
2021/08/19 04:37:09;;;;;;;14.85;4.43;;;;;;;;;;5075756;28;20178;-44
2021/08/19 04:39:35;;;;;;;17.73;4.68;;;;;;;;;;5081861;28;20192;-45
2021/08/19 04:42:01;;;;;;;13.13;4.72;;;;;;;;;;5085407;28;20224;-44
2021/08/19 04:44:27;;;;;;;17.35;5.25;;;;;;;;;;5087150;28;20189;-44
2021/08/19 04:46:53;;;;;;;20.48;6.13;;;;;;;;;;5075649;28;20166;-45
2021/08/19 04:49:19;;;;;;;18.83;5.90;;;;;;;;;;5077136;28;20206;-44
2021/08/19 04:51:45;;;;;;;20.77;6.25;;;;;;;;;;5076970;28;20185;-44
2021/08/19 04:54:11;;;;;;;22.33;6.55;;;;;;;;;;5082271;28;20193;-44
2021/08/19 04:56:38;;;;;;;20.15;6.55;;;;;;;;;;5092273;28;20829;-44
2021/08/19 04:59:08;;;;;;;22.42;6.57;;;;;;;;;;5091348;28;20591;-44
2021/08/19 05:01:35;;;;;;;18.63;7.32;;;;;;;;;;5095281;28;20243;-44
2021/08/19 05:04:01;;;;;;;21.73;7.18;;;;;;;;;;5095566;28;20193;-44
2021/08/19 05:06:27;;;;;;;24.52;8.35;;;;;;;;;;5088807;28;20192;-44
2021/08/19 05:08:55;;;;;;;24.10;7.97;;;;;;;;;;5074584;28;20241;-45
2021/08/19 05:11:21;;;;;;;29.92;8.88;;;;;;;;;;5080566;28;20447;-44
2021/08/19 05:13:47;;;;;;;21.95;7.88;;;;;;;;;;5082391;28;20529;-44
2021/08/19 05:16:13;;;;;;;23.83;7.82;;;;;;;;;;5095463;28;20172;-44
2021/08/19 05:18:40;;;;;;;22.33;8.35;;;;;;;;;;5085210;28;20198;-44
2021/08/19 05:21:06;;;;;;;30.17;7.95;;;;;;;;;;5086574;28;20441;-44
2021/08/19 05:23:32;;;;;;;26.83;9.88;;;;;;;;;;5093752;28;20198;-44
2021/08/19 05:25:58;;;;;;;24.10;8.90;;;;;;;;;;5074816;28;20213;-44
2021/08/19 05:28:24;;;;;;;22.67;8.23;;;;;;;;;;5078634;28;20252;-44
2021/08/19 05:30:51;;;;;;;26.85;8.85;;;;;;;;;;5075058;28;20174;-45
2021/08/19 05:33:17;;;;;;;25.42;9.07;;;;;;;;;;5080828;28;20166;-44
2021/08/19 05:35:43;;;;;;;27.58;9.65;;;;;;;;;;5094636;28;20182;-44
2021/08/19 05:38:09;;;;;;;27.52;8.80;;;;;;;;;;5094307;28;20170;-44
2021/08/19 05:40:35;;;;;;;26.38;8.13;;;;;;;;;;5094508;28;20197;-44
2021/08/19 05:43:01;;;;;;;28.23;8.98;;;;;;;;;;5081600;28;20167;-44
2021/08/19 05:45:27;;;;;;;25.33;8.15;;;;;;;;;;5091570;28;20196;-44
2021/08/19 05:47:53;;;;;;;23.08;8.70;;;;;;;;;;5090575;28;20582;-44
2021/08/19 05:50:19;;;;;;;21.25;8.43;;;;;;;;;;5085678;28;20186;-45
2021/08/19 05:52:45;;;;;;;27.48;6.95;;;;;;;;;;5085314;28;20183;-44
2021/08/19 05:55:12;;;;;;;22.92;7.97;;;;;;;;;;5089448;28;20181;-44
2021/08/19 05:57:38;;;;;;;26.70;8.20;;;;;;;;;;5086065;28;20180;-45
2021/08/19 06:00:04;;;;;;;18.23;7.57;;;;;;;;;;5086736;28;20178;-45
2021/08/19 06:02:30;;;;;;;23.33;7.50;;;;;;;;;;5090005;28;20500;-44
2021/08/19 06:04:57;;;;;;;22.52;7.78;;;;;;;;;;5115219;28;20230;-44
2021/08/19 06:07:23;;;;;;;18.25;7.25;;;;;;;;;;5114456;28;20189;-45
2021/08/19 06:09:49;;;;;;;21.90;8.05;;;;;;;;;;5090095;28;20547;-44
2021/08/19 06:12:15;;;;;;;20.63;7.65;;;;;;;;;;5088557;28;20181;-45
2021/08/19 06:14:41;;;;;;;19.95;7.85;;;;;;;;;;5079267;28;20185;-45
2021/08/19 06:17:07;;;;;;;21.05;7.38;;;;;;;;;;5089349;28;20223;-45
2021/08/19 06:19:33;;;;;;;18.33;6.55;;;;;;;;;;5094569;28;20189;-45
2021/08/19 06:21:59;;;;;;;22.42;7.18;;;;;;;;;;5094348;28;20232;-45
2021/08/19 06:24:26;;;;;;;21.95;6.65;;;;;;;;;;5094147;28;20247;-44
2021/08/19 06:26:52;;;;;;;18.15;6.93;;;;;;;;;;5090180;28;20359;-45
2021/08/19 06:29:17;;;;;;;18.83;7.57;;;;;;;;;;5077355;28;20638;-44
2021/08/19 06:31:43;;;;;;;19.17;6.70;;;;;;;;;;5072741;28;20249;-45
2021/08/19 06:34:09;;;;;;;18.95;6.20;;;;;;;;;;5072612;28;20530;-45
2021/08/19 06:36:35;;;;;;;20.05;6.95;;;;;;;;;;5073870;28;20250;-45
2021/08/19 06:39:01;;;;;;;18.98;6.85;;;;;;;;;;5076473;28;20186;-45
2021/08/19 06:41:27;;;;;;;16.70;6.38;;;;;;;;;;5080816;28;20230;-44
2021/08/19 06:43:53;;;;;;;18.25;6.03;;;;;;;;;;5083071;28;20581;-44
2021/08/19 06:46:20;;;;;;;19.75;6.10;;;;;;;;;;5078185;28;20170;-45
2021/08/19 06:48:46;;;;;;;18.88;6.78;;;;;;;;;;5077403;28;20198;-45
2021/08/19 06:51:12;;;;;;;15.23;6.18;;;;;;;;;;5077741;28;20182;-45
2021/08/19 06:53:38;;;;;;;14.95;5.78;;;;;;;;;;5079735;28;20170;-44
2021/08/19 06:56:04;;;;;;;17.00;5.28;;;;;;;;;;5091708;28;20251;-45
2021/08/19 06:58:30;;;;;;;12.98;5.65;;;;;;;;;;5072030;28;20186;-44
2021/08/19 07:00:56;;;;;;;13.60;5.47;;;;;;;;;;5078430;28;20182;-45
2021/08/19 07:03:23;;;;;;;14.45;5.70;;;;;;;;;;5084027;28;20201;-44
2021/08/19 07:05:49;;;;;;;15.25;5.70;;;;;;;;;;5097718;28;20170;-45
2021/08/19 07:08:15;;;;;;;14.32;5.68;;;;;;;;;;5096486;28;20241;-45
2021/08/19 07:10:43;;;;;;;11.15;5.00;;;;;;;;;;5085734;28;20175;-45
2021/08/19 07:13:09;;;;;;;12.93;5.28;;;;;;;;;;5082823;28;20177;-44
2021/08/19 07:15:35;;;;;;;15.75;5.55;;;;;;;;;;5097508;28;20347;-44
2021/08/19 07:18:01;;;;;;;15.15;5.65;;;;;;;;;;5097156;28;20190;-44
2021/08/19 07:20:28;;;;;;;11.10;4.60;;;;;;;;;;5097546;28;20261;-45
2021/08/19 07:22:54;;;;;;;10.63;4.22;;;;;;;;;;5089529;28;20193;-44
2021/08/19 07:25:23;;;;;;;12.30;4.90;;;;;;;;;;5094046;28;20235;-45
2021/08/19 07:27:49;;;;;;;11.13;4.32;;;;;;;;;;5093345;28;20174;-45
2021/08/19 07:30:17;;;;;;;11.40;4.75;;;;;;;;;;5096889;28;20553;-45
2021/08/19 07:32:43;;;;;;;8.70;4.15;;;;;;;;;;5097516;28;20260;-45
2021/08/19 07:35:09;;;;;;;11.07;4.75;;;;;;;;;;5097185;28;20215;-45
2021/08/19 07:37:43;;;;;;;9.02;4.70;;;;;;;;;;5082448;28;20601;-45
2021/08/19 07:40:10;;;;;;;8.30;3.92;;;;;;;;;;5094509;28;20200;-44
2021/08/19 07:42:36;;;;;;;10.95;4.57;;;;;;;;;;5086095;28;20208;-45
2021/08/19 07:45:02;;;;;;;8.32;4.00;;;;;;;;;;5069816;28;20189;-44
2021/08/19 07:47:28;;;;;;;11.55;4.10;;;;;;;;;;5075827;28;20228;-45
2021/08/19 07:49:54;;;;;;;9.05;4.13;;;;;;;;;;5076929;28;20224;-45
2021/08/19 07:52:20;;;;;;;8.98;3.90;;;;;;;;;;5077056;28;20565;-44
2021/08/19 07:54:46;;;;;;;8.45;3.75;;;;;;;;;;5088198;28;20264;-44
2021/08/19 07:57:12;;;;;;;10.07;4.47;;;;;;;;;;5080795;28;20453;-45
2021/08/19 07:59:38;;;;;;;7.45;3.45;;;;;;;;;;5076561;28;20178;-44
2021/08/19 08:02:04;;;;;;;8.32;3.47;;;;;;;;;;5085507;28;20194;-45
2021/08/19 08:04:30;;;;;;;7.88;3.97;;;;;;;;;;5096928;28;20169;-45
2021/08/19 08:06:56;;;;;;;7.10;3.15;;;;;;;;;;5081879;28;20183;-44
2021/08/19 08:09:22;;;;;;;8.30;4.18;;;;;;;;;;5083725;28;20595;-44
2021/08/19 08:11:48;;;;;;;7.53;3.17;;;;;;;;;;5094792;28;20181;-44
2021/08/19 08:14:14;;;;;;;5.53;1.95;;;;;;;;;;5085559;28;20177;-44
2021/08/19 08:16:40;;;;;;;2.90;2.05;;;;;;;;;;5096459;28;20465;-44
2021/08/19 08:19:07;;;;;;;6.05;2.38;;;;;;;;;;5092595;28;20861;-44
2021/08/19 08:21:35;;;;;;;2.50;1.85;;;;;;;;;;5096095;28;20256;-44
2021/08/19 08:24:03;;;;;;;5.90;2.20;;;;;;;;;;5093418;28;20476;-44
2021/08/19 08:26:29;;;;;;;4.13;1.75;;;;;;;;;;5076290;28;20162;-44
2021/08/19 08:28:57;;;;;;;1.88;1.70;;;;;;;;;;5089768;28;20190;-44
2021/08/19 08:31:23;;;;;;;1.73;1.60;;;;;;;;;;5096067;28;20174;-44
2021/08/19 08:33:50;;;;;;;2.33;1.50;;;;;;;;;;5094602;28;20726;-45
2021/08/19 08:36:16;;;;;;;3.92;1.77;;;;;;;;;;5089521;28;20579;-44
2021/08/19 08:38:44;;;;;;;4.80;1.60;;;;;;;;;;5080703;28;20450;-44
2021/08/19 08:41:11;;;;;;;2.50;1.60;;;;;;;;;;5094155;28;20569;-44
2021/08/19 08:43:37;;;;;;;3.08;1.38;;;;;;;;;;5081027;28;20190;-45
2021/08/19 08:46:06;;;;;;;2.67;1.40;;;;;;;;;;5095994;28;20284;-44
2021/08/19 08:48:32;;;;;;;1.58;1.48;;;;;;;;;;5087095;28;20205;-45
2021/08/19 08:50:59;;;;;;;2.60;1.50;;;;;;;;;;5076551;28;20212;-45
2021/08/19 08:53:25;;;;;;;1.65;1.45;;;;;;;;;;5093313;28;20178;-44
2021/08/19 08:55:52;;;;;;;1.23;1.10;;;;;;;;;;5089298;28;20166;-44
2021/08/19 08:58:18;;;;;;;1.42;1.33;;;;;;;;;;5085764;28;20207;-44
2021/08/19 09:00:45;;;;;;;1.73;1.33;;;;;;;;;;5075113;28;20265;-44
2021/08/19 09:03:12;;;;;;;4.13;1.42;;;;;;;;;;5080664;28;20576;-44
2021/08/19 09:05:39;;;;;;;1.63;1.52;;;;;;;;;;5093420;28;20435;-44
2021/08/19 09:08:05;;;;;;;2.15;1.60;;;;;;;;;;5086653;28;20205;-44
2021/08/19 09:10:32;;;;;;;2.00;1.45;;;;;;;;;;5075600;28;20183;-44
2021/08/19 09:13:05;;;;;;;1.52;1.30;;;;;;;;;;5083173;28;20174;-44
2021/08/19 09:15:31;;;;;;;1.20;1.10;;;;;;;;;;5082866;28;20545;-44
2021/08/19 09:18:00;;;;;;;2.38;1.70;;;;;;;;;;5077939;28;20216;-45
2021/08/19 09:20:32;;;;;;;1.45;1.30;;;;;;;;;;5075140;28;20169;-45
2021/08/19 09:22:59;;;;;;;1.15;1.05;;;;;;;;;;5077803;28;20258;-45
2021/08/19 09:25:30;;;;;;;2.65;1.35;;;;;;;;;;5094243;28;20572;-44
2021/08/19 09:28:15;;;;;;;1.33;1.20;;;;;;;;;;5083883;28;20179;-44
2021/08/19 09:30:42;;;;;;;1.10;1.00;;;;;;;;;;5088632;28;20227;-44
2021/08/19 09:33:09;;;;;;;1.63;1.17;;;;;;;;;;5084000;28;20178;-44
2021/08/19 09:35:35;;;;;;;1.40;1.30;;;;;;;;;;5092718;28;20186;-44
2021/08/19 09:38:08;;;;;;;2.65;1.20;;;;;;;;;;5073740;28;20185;-44
2021/08/19 09:40:34;;;;;;;2.60;1.20;;;;;;;;;;5075269;28;20460;-44
2021/08/19 09:43:00;;;;;;;1.80;1.13;;;;;;;;;;5077762;28;20580;-44
2021/08/19 09:45:26;;;;;;;1.40;1.10;;;;;;;;;;5090418;28;20193;-44
2021/08/19 09:47:53;;;;;;;2.53;1.30;;;;;;;;;;5090967;28;20232;-44
2021/08/19 09:50:20;;;;;;;1.40;1.30;;;;;;;;;;5076494;28;20189;-44
2021/08/19 09:52:47;;;;;;;1.48;1.30;;;;;;;;;;5084764;28;20178;-44
2021/08/19 09:55:25;;;;;;;1.40;1.30;;;;;;;;;;5079587;28;20197;-44
2021/08/19 09:57:52;;;;;;;1.75;1.33;;;;;;;;;;5085079;28;20186;-44
2021/08/19 10:00:31;;;;;;;2.35;1.63;;;;;;;;;;5073121;28;20545;-44
2021/08/19 10:02:57;;;;;;;1.50;1.40;;;;;;;;;;5072859;28;20228;-44
2021/08/19 10:05:24;;;;;;;1.52;1.42;;;;;;;;;;5073884;28;20220;-46
2021/08/19 10:07:50;;;;;;;2.70;1.60;;;;;;;;;;5073676;28;20482;-45
2021/08/19 10:10:16;;;;;;;1.77;1.60;;;;;;;;;;5086287;28;20211;-45
2021/08/19 10:12:44;;;;;;;1.50;1.40;;;;;;;;;;5094946;28;20281;-45
2021/08/19 10:15:10;;;;;;;1.60;1.50;;;;;;;;;;5094999;28;20185;-45
2021/08/19 10:17:37;;;;;;;2.45;1.67;;;;;;;;;;5100519;28;20214;-45
2021/08/19 10:20:07;;;;;;;1.60;1.50;;;;;;;;;;5101342;28;20185;-45
2021/08/19 10:22:34;;;;;;;3.10;1.38;;;;;;;;;;5101248;28;20185;-45
2021/08/19 10:25:01;;;;;;;2.05;1.58;;;;;;;;;;5099727;28;20169;-45
2021/08/19 10:27:28;;;;;;;1.52;1.42;;;;;;;;;;5096465;28;20192;-45
2021/08/19 10:29:56;;;;;;;1.95;1.50;;;;;;;;;;5092639;28;20193;-45
2021/08/19 10:32:27;;;;;;;1.75;1.45;;;;;;;;;;5101184;28;20210;-45
2021/08/19 10:34:57;;;;;;;3.15;1.70;;;;;;;;;;5081738;28;20236;-45
2021/08/19 10:37:42;;;;;;;2.33;1.85;;;;;;;;;;5080326;28;20170;-45
2021/08/19 10:40:28;;;;;;;2.63;1.60;;;;;;;;;;5080914;28;20174;-45
2021/08/19 10:43:12;;;;;;;2.72;1.70;;;;;;;;;;5090089;28;20182;-45
2021/08/19 10:45:42;;;;;;;1.90;1.65;;;;;;;;;;5082970;28;20214;-45
2021/08/19 10:48:07;;;;;;;2.75;1.40;;;;;;;;;;5080296;28;20226;-45
2021/08/19 10:50:35;;;;;;;1.73;1.60;;;;;;;;;;5086933;28;20182;-45
2021/08/19 10:53:10;;;;;;;3.10;1.65;;;;;;;;;;5086523;28;20167;-45
2021/08/19 10:55:47;;;;;;;1.85;1.75;;;;;;;;;;5080768;28;20174;-45
2021/08/19 10:58:32;;;;;;;1.60;1.50;;;;;;;;;;5089706;28;20177;-45
2021/08/19 11:00:58;;;;;;;1.50;1.40;;;;;;;;;;5080577;28;20185;-45
2021/08/19 11:03:37;;;;;;;2.15;1.77;;;;;;;;;;5080197;28;20183;-45
2021/08/19 11:06:04;;;;;;;2.53;1.33;;;;;;;;;;5080749;28;20178;-45
2021/08/19 11:08:44;;;;;;;1.70;1.50;;;;;;;;;;5079898;28;20229;-45
2021/08/19 11:11:11;;;;;;;1.88;1.48;;;;;;;;;;5095016;28;20177;-45
2021/08/19 11:13:37;;;;;;;1.60;1.50;;;;;;;;;;5087064;28;20178;-45
2021/08/19 11:16:07;;;;;;;4.72;1.45;;;;;;;;;;5090182;28;20192;-45
2021/08/19 11:18:34;;;;;;;1.55;1.45;;;;;;;;;;5097257;28;20185;-45
2021/08/19 11:21:01;;;;;;;2.05;1.58;;;;;;;;;;5097987;28;20166;-45
2021/08/19 11:23:39;;;;;;;3.45;1.40;;;;;;;;;;5093677;28;20174;-45
2021/08/19 11:26:09;;;;;;;2.22;1.27;;;;;;;;;;5094636;28;20170;-46
2021/08/19 11:28:45;;;;;;;1.50;1.40;;;;;;;;;;5076048;28;20325;-46
2021/08/19 11:31:17;;;;;;;1.33;1.00;;;;;;;;;;5075059;28;20174;-46
2021/08/19 11:33:44;;;;;;;2.40;1.38;;;;;;;;;;5076158;28;20166;-46
2021/08/19 11:36:11;;;;;;;1.55;1.45;;;;;;;;;;5077137;28;20224;-45
2021/08/19 11:38:37;;;;;;;1.60;1.20;;;;;;;;;;5076166;28;20193;-45
2021/08/19 11:41:14;;;;;;;1.77;1.30;;;;;;;;;;5077512;28;20166;-45
2021/08/19 11:43:42;;;;;;;1.65;1.55;;;;;;;;;;5059780;28;20467;-45
2021/08/19 11:46:12;;;;;;;1.23;1.20;;;;;;;;;;5076971;28;20170;-45
2021/08/19 11:48:58;;;;;;;1.33;1.23;;;;;;;;;;5076119;28;20573;-45
2021/08/19 11:51:26;;;;;;;1.45;1.35;;;;;;;;;;5076623;28;20736;-45
2021/08/19 11:54:02;;;;;;;1.60;1.50;;;;;;;;;;5076681;28;20167;-45
2021/08/19 11:56:32;;;;;;;1.50;1.40;;;;;;;;;;5086591;28;20174;-45
2021/08/19 11:59:06;;;;;;;1.58;1.48;;;;;;;;;;5095961;28;20174;-45
2021/08/19 12:01:33;;;;;;;2.13;1.52;;;;;;;;;;5096524;28;20211;-45
2021/08/19 12:03:59;;;;;;;1.40;1.30;;;;;;;;;;5096519;28;20565;-45
2021/08/19 12:06:27;;;;;;;1.83;1.70;;;;;;;;;;5096926;28;20590;-45
2021/08/19 12:09:05;;;;;;;2.22;1.42;;;;;;;;;;5096084;28;20200;-45
2021/08/19 12:11:32;;;;;;;1.55;1.30;;;;;;;;;;5076443;28;20174;-45
2021/08/19 12:14:00;;;;;;;1.45;1.35;;;;;;;;;;5085994;28;20183;-45
2021/08/19 12:16:27;;;;;;;1.65;1.50;;;;;;;;;;5076167;28;20182;-45
2021/08/19 12:19:05;;;;;;;1.50;1.40;;;;;;;;;;5086345;28;20534;-45
2021/08/19 12:21:32;;;;;;;2.45;1.50;;;;;;;;;;5094935;28;20180;-45
2021/08/19 12:24:12;;;;;;;1.60;1.50;;;;;;;;;;5093434;28;20178;-45
2021/08/19 12:26:39;;;;;;;2.38;1.58;;;;;;;;;;5078977;28;20181;-45
2021/08/19 12:29:05;;;;;;;1.77;1.50;;;;;;;;;;5094123;28;20260;-45
2021/08/19 12:31:51;;;;;;;2.25;1.42;;;;;;;;;;5092866;28;20477;-45
2021/08/19 12:34:20;;;;;;;1.50;1.40;;;;;;;;;;5081799;28;20178;-45
2021/08/19 12:36:47;;;;;;;1.85;1.38;;;;;;;;;;5095573;28;20173;-45
2021/08/19 12:39:18;;;;;;;2.00;1.30;;;;;;;;;;5094578;28;20181;-45
2021/08/19 12:41:45;;;;;;;1.55;1.30;;;;;;;;;;5090221;28;20170;-45
2021/08/19 12:44:11;;;;;;;2.17;1.40;;;;;;;;;;5077878;28;20182;-45
2021/08/19 12:46:38;;;;;;;1.52;1.35;;;;;;;;;;5078377;28;20197;-45
2021/08/19 12:49:22;;;;;;;1.77;1.35;;;;;;;;;;5083749;28;20194;-45
2021/08/19 12:51:48;;;;;;;1.80;1.50;;;;;;;;;;5090927;28;20289;-45
2021/08/19 12:54:20;;;;;;;1.70;1.60;;;;;;;;;;5083087;28;20257;-45
2021/08/19 12:56:58;;;;;;;1.70;1.35;;;;;;;;;;5075682;28;20171;-45
2021/08/19 12:59:25;;;;;;;1.55;1.45;;;;;;;;;;5089971;28;20178;-45
2021/08/19 13:01:51;;;;;;;1.40;1.30;;;;;;;;;;5093685;28;20241;-45
2021/08/19 13:04:17;;;;;;;1.40;1.30;;;;;;;;;;5083628;28;20552;-45
2021/08/19 13:06:43;;;;;;;1.52;1.40;;;;;;;;;;5095618;28;20565;-45
2021/08/19 13:09:09;;;;;;;2.80;1.42;;;;;;;;;;5094124;28;20281;-45
2021/08/19 13:11:35;;;;;;;1.52;1.42;;;;;;;;;;5095213;28;20545;-45
2021/08/19 13:14:01;;;;;;;1.75;1.50;;;;;;;;;;5083720;28;20189;-44
2021/08/19 13:16:28;;;;;;;2.17;1.40;;;;;;;;;;5090703;28;20174;-45
2021/08/19 13:18:54;;;;;;;1.40;1.30;;;;;;;;;;5081871;28;20198;-45
2021/08/19 13:21:20;;;;;;;1.33;1.17;;;;;;;;;;5095229;28;20411;-45
2021/08/19 13:23:46;;;;;;;1.80;1.60;;;;;;;;;;5076004;28;20182;-45
2021/08/19 13:26:11;;;;;;;1.70;1.60;;;;;;;;;;5076042;28;20597;-45
2021/08/19 13:28:37;;;;;;;1.50;1.40;;;;;;;;;;5073633;28;20271;-45
2021/08/19 13:31:03;;;;;;;2.03;1.60;;;;;;;;;;5074801;28;20189;-45
2021/08/19 13:33:29;;;;;;;1.60;1.50;;;;;;;;;;5090959;28;20251;-45
2021/08/19 13:35:55;;;;;;;1.88;1.40;;;;;;;;;;5094261;28;20170;-45
2021/08/19 13:38:21;;;;;;;1.45;1.35;;;;;;;;;;5093950;28;20177;-45
2021/08/19 13:40:48;;;;;;;1.48;1.38;;;;;;;;;;5088756;28;20193;-45
2021/08/19 13:43:14;;;;;;;1.55;1.45;;;;;;;;;;5087232;28;20183;-45
2021/08/19 13:45:40;;;;;;;1.83;1.30;;;;;;;;;;5076152;28;20231;-45
2021/08/19 13:48:06;;;;;;;1.35;1.25;;;;;;;;;;5075008;28;20285;-45
2021/08/19 13:50:33;;;;;;;1.48;1.23;;;;;;;;;;5079914;28;20222;-45
2021/08/19 13:52:59;;;;;;;1.42;1.33;;;;;;;;;;5089068;28;20175;-45
2021/08/19 13:55:25;;;;;;;1.60;1.50;;;;;;;;;;5090006;28;20259;-45
2021/08/19 13:57:51;;;;;;;1.50;1.40;;;;;;;;;;5074058;28;20166;-45
2021/08/19 14:00:18;;;;;;;1.60;1.30;;;;;;;;;;5074358;28;20182;-45
2021/08/19 14:02:44;;;;;;;1.65;1.17;;;;;;;;;;5091050;28;20565;-45
2021/08/19 14:05:10;;;;;;;1.55;1.45;;;;;;;;;;5089635;28;20229;-45
2021/08/19 14:07:36;;;;;;;2.05;1.33;;;;;;;;;;5083944;28;20175;-45
2021/08/19 14:10:03;;;;;;;1.40;1.30;;;;;;;;;;5079296;28;20231;-45
2021/08/19 14:12:29;;;;;;;1.73;1.40;;;;;;;;;;5080913;28;20227;-45
2021/08/19 14:14:55;;;;;;;2.22;1.30;;;;;;;;;;5074323;28;20175;-45
2021/08/19 14:17:21;;;;;;;1.60;1.45;;;;;;;;;;5093256;28;20198;-45
2021/08/19 14:19:47;;;;;;;1.58;1.48;;;;;;;;;;5085649;28;20198;-45
2021/08/19 14:22:13;;;;;;;1.88;1.52;;;;;;;;;;5064473;28;20448;-45
2021/08/19 14:24:39;;;;;;;1.60;1.45;;;;;;;;;;5082755;28;20184;-45
2021/08/19 14:27:05;;;;;;;1.60;1.50;;;;;;;;;;5079745;28;20256;-45
2021/08/19 14:29:32;;;;;;;1.70;1.60;;;;;;;;;;5089893;28;20208;-45
2021/08/19 14:31:58;;;;;;;1.70;1.60;;;;;;;;;;5089963;28;20660;-45
2021/08/19 14:34:24;;;;;;;3.42;1.55;;;;;;;;;;5068312;28;20280;-45
2021/08/19 14:36:50;;;;;;;3.25;1.77;;;;;;;;;;5074464;28;20179;-44
2021/08/19 14:39:18;;;;;;;4.45;1.70;;;;;;;;;;5083775;28;20187;-45
2021/08/19 14:41:44;;;;;;;2.83;1.65;;;;;;;;;;5085038;28;20173;-45